Time;durP1;ratioP1;P1;durP2;ratioP2;P2;SDS_P1;SDS_P2;PMS_P1;PMS_P2;Temp;Humidity;BMP_temperature;BMP_pressure;BME280_temperature;BME280_humidity;BME280_pressure;Samples;Min_cycle;Max_cycle;Signal;HPM_P1;HPM_P2
2021/11/27 08:02:41;;;;;;;2.90;1.55;;;;;;;2.11;100.00;96445.59;5118475;27;20391;-78
2021/11/27 08:05:08;;;;;;;2.72;2.03;;;;;;;2.23;100.00;96445.88;5111269;28;20507;-78
2021/11/27 08:07:37;;;;;;;2.72;1.83;;;;;;;2.40;100.00;96451.72;5101704;28;20083;-79
2021/11/27 08:10:06;;;;;;;2.13;1.60;;;;;;;2.38;100.00;96434.16;5086942;28;20045;-79
2021/11/27 08:12:32;;;;;;;2.70;1.58;;;;;;;2.50;100.00;96439.78;5074284;28;20048;-78
2021/11/27 08:15:00;;;;;;;3.88;1.90;;;;;;;2.62;100.00;96451.59;5091919;28;20098;-79
2021/11/27 08:17:29;;;;;;;1.63;1.05;;;;;;;2.61;100.00;96439.22;5098930;28;20122;-79
2021/11/27 08:19:59;;;;;;;4.00;1.40;;;;;;;2.67;100.00;96462.56;5075114;28;20078;-79
2021/11/27 08:22:26;;;;;;;1.35;1.25;;;;;;;2.76;100.00;96460.53;5103032;28;20445;-79
2021/11/27 08:24:52;;;;;;;1.58;1.48;;;;;;;2.70;100.00;96445.25;5091317;28;20067;-78
2021/11/27 08:27:21;;;;;;;3.53;1.40;;;;;;;2.83;100.00;96447.94;5090416;28;20054;-79
2021/11/27 08:29:48;;;;;;;4.67;1.30;;;;;;;2.91;100.00;96439.72;5090323;28;20051;-78
2021/11/27 08:32:15;;;;;;;1.42;1.25;;;;;;;3.07;100.00;96462.66;5105572;28;20305;-78
2021/11/27 08:34:42;;;;;;;1.80;1.38;;;;;;;3.13;100.00;96467.22;5083627;28;20052;-78
2021/11/27 08:37:13;;;;;;;1.77;1.60;;;;;;;3.22;100.00;96461.66;5073751;28;20538;-78
2021/11/27 08:39:42;;;;;;;2.50;1.35;;;;;;;3.27;100.00;96461.88;5067826;28;20053;-78
2021/11/27 08:42:10;;;;;;;2.30;1.73;;;;;;;3.35;100.00;96473.22;5100600;28;20135;-79
2021/11/27 08:44:37;;;;;;;2.17;1.30;;;;;;;3.42;100.00;96483.13;5110579;28;20044;-78
2021/11/27 08:47:06;;;;;;;2.33;1.90;;;;;;;3.28;100.00;96469.72;5093471;28;20056;-78
2021/11/27 08:49:32;;;;;;;2.92;1.40;;;;;;;3.46;100.00;96479.03;5086074;28;20048;-78
2021/11/27 08:51:59;;;;;;;3.28;1.65;;;;;;;3.44;100.00;96470.34;5105102;28;20047;-78
2021/11/27 08:54:28;;;;;;;2.78;1.92;;;;;;;3.47;100.00;96486.06;5081014;28;20055;-79
2021/11/27 08:56:56;;;;;;;1.30;1.20;;;;;;;3.50;100.00;96493.69;5105549;28;20055;-78
2021/11/27 08:59:24;;;;;;;2.83;1.30;;;;;;;3.44;100.00;96479.22;5106130;28;20047;-78
2021/11/27 09:01:56;;;;;;;7.38;1.50;;;;;;;3.43;100.00;96482.13;5088862;28;20052;-84
2021/11/27 09:04:23;;;;;;;1.23;1.13;;;;;;;3.61;100.00;96487.69;5088464;28;20400;-82
2021/11/27 09:06:50;;;;;;;2.97;1.33;;;;;;;3.64;100.00;96499.91;5085432;28;20135;-78
2021/11/27 09:09:17;;;;;;;2.95;1.00;;;;;;;3.69;100.00;96498.25;5069328;28;20106;-77
2021/11/27 09:11:45;;;;;;;1.63;1.10;;;;;;;3.66;100.00;96479.06;5067685;28;20041;-78
2021/11/27 09:14:12;;;;;;;1.75;1.00;;;;;;;3.85;100.00;96499.72;5056056;28;20060;-78
2021/11/27 09:16:42;;;;;;;2.00;1.40;;;;;;;3.96;100.00;96505.47;5088280;28;20047;-78
2021/11/27 09:19:09;;;;;;;1.67;1.27;;;;;;;3.89;100.00;96495.56;5096080;28;20380;-78
2021/11/27 09:21:36;;;;;;;3.97;1.38;;;;;;;4.09;100.00;96510.84;5096366;28;20051;-78
2021/11/27 09:24:04;;;;;;;2.05;1.25;;;;;;;3.92;100.00;96505.06;5078041;28;20045;-78
2021/11/27 09:26:31;;;;;;;2.60;1.20;;;;;;;3.96;100.00;96516.22;5075838;28;20121;-78
2021/11/27 09:29:00;;;;;;;2.42;1.25;;;;;;;3.96;100.00;96518.91;5089920;28;20054;-77
2021/11/27 09:31:26;;;;;;;2.42;1.02;;;;;;;3.92;100.00;96518.50;5096350;28;20047;-77
2021/11/27 09:33:53;;;;;;;2.45;1.40;;;;;;;3.89;100.00;96508.19;5077403;28;20082;-77
2021/11/27 09:36:22;;;;;;;5.13;2.90;;;;;;;3.86;100.00;96519.34;5075574;28;20044;-77
2021/11/27 09:38:49;;;;;;;1.80;1.35;;;;;;;3.78;100.00;96500.72;5073723;28;20056;-77
2021/11/27 09:41:22;;;;;;;5.05;1.55;;;;;;;3.79;100.00;96513.13;5075881;28;20101;-77
2021/11/27 09:43:50;;;;;;;1.35;1.13;;;;;;;3.92;100.00;96518.50;5074699;28;20458;-77
2021/11/27 09:46:20;;;;;;;3.55;1.58;;;;;;;4.01;100.00;96521.81;5075181;28;20048;-77
2021/11/27 09:48:51;;;;;;;0.77;0.77;;;;;;;4.03;100.00;96533.19;5087392;28;20415;-77
2021/11/27 09:51:18;;;;;;;2.33;1.27;;;;;;;4.03;100.00;96536.69;5095877;28;20050;-77
2021/11/27 09:53:46;;;;;;;1.05;0.88;;;;;;;4.01;100.00;96529.88;5090099;28;20043;-77
2021/11/27 09:56:14;;;;;;;1.90;1.30;;;;;;;3.95;100.00;96525.34;5090679;28;20040;-81
2021/11/27 09:58:41;;;;;;;1.98;1.33;;;;;;;3.77;100.00;96507.16;5084573;28;20097;-81
2021/11/27 10:01:08;;;;;;;1.10;1.00;;;;;;;3.87;100.00;96524.50;5064532;28;20049;-83
2021/11/27 10:03:41;;;;;;;2.95;1.73;;;;;;;3.85;100.00;96523.06;5078366;28;20040;-81
2021/11/27 10:06:08;;;;;;;3.97;1.63;;;;;;;3.75;100.00;96517.25;5095617;28;20130;-81
2021/11/27 10:08:36;;;;;;;2.13;1.08;;;;;;;3.71;100.00;96509.63;5093738;28;20415;-81
2021/11/27 10:11:03;;;;;;;2.70;1.30;;;;;;;3.75;100.00;96514.56;5095074;28;20044;-82
2021/11/27 10:13:30;;;;;;;2.35;1.05;;;;;;;3.76;100.00;96502.81;5095032;28;20496;-82
2021/11/27 10:16:00;;;;;;;1.30;0.85;;;;;;;3.80;100.00;96517.50;5085719;28;20040;-82
2021/11/27 10:18:32;;;;;;;8.07;0.98;;;;;;;3.82;100.00;96510.84;5074061;28;20052;-82
2021/11/27 10:21:17;;;;;;;1.48;1.13;;;;;;;3.84;100.00;96492.69;5080766;28;20066;-82
2021/11/27 10:23:46;;;;;;;3.75;1.27;;;;;;;3.92;100.00;96499.69;5094216;28;20044;-82
2021/11/27 10:26:32;;;;;;;3.03;1.00;;;;;;;3.88;100.00;96493.91;5088427;28;20048;-83
2021/11/27 10:29:25;;;;;;;4.32;1.00;;;;;;;4.01;98.68;96505.69;5076302;28;20120;-83
2021/11/27 10:32:04;;;;;;;1.90;0.98;;;;;;;4.01;100.00;96513.75;5075656;28;20438;-82
2021/11/27 10:34:32;;;;;;;1.92;1.27;;;;;;;4.10;100.00;96509.00;5074357;28;20044;-83
2021/11/27 10:37:24;;;;;;;1.30;1.00;;;;;;;4.27;100.00;96529.00;5079157;28;20052;-83
2021/11/27 10:40:11;;;;;;;2.13;1.30;;;;;;;4.26;98.68;96516.63;5073708;28;20400;-83
2021/11/27 10:42:46;;;;;;;2.10;1.40;;;;;;;4.19;99.79;96507.72;5059141;28;20138;-83
2021/11/27 10:45:18;;;;;;;4.45;1.83;;;;;;;4.14;99.57;96527.19;5058920;28;20045;-82
2021/11/27 10:47:49;;;;;;;6.43;1.77;;;;;;;4.08;98.80;96509.22;5090726;28;20052;-82
2021/11/27 10:50:25;;;;;;;3.05;1.65;;;;;;;4.27;100.00;96514.75;5082708;28;20048;-82
2021/11/27 10:52:56;;;;;;;2.33;1.75;;;;;;;4.28;100.00;96508.34;5066570;28;20044;-82
2021/11/27 10:55:29;;;;;;;3.03;1.40;;;;;;;4.36;98.27;96518.88;5073639;28;20052;-83
2021/11/27 10:58:09;;;;;;;1.77;1.23;;;;;;;4.32;99.35;96517.63;5073920;28;20455;-82
2021/11/27 11:07:30;;;;;;;2.42;1.50;;;;;;;4.20;99.78;96520.97;5072826;28;20098;-80
2021/11/27 11:10:22;;;;;;;1.70;1.20;;;;;;;4.43;98.27;96544.72;5021728;28;20076;-80
2021/11/27 11:12:51;;;;;;;3.53;1.55;;;;;;;4.18;100.00;96525.72;5025640;28;20048;-81
2021/11/27 11:15:24;;;;;;;5.32;1.60;;;;;;;4.24;100.00;96538.31;5061068;28;20056;-80
2021/11/27 11:17:54;;;;;;;9.10;3.72;;;;;;;4.16;100.00;96549.31;5073876;28;20049;-80
2021/11/27 11:20:26;;;;;;;4.75;2.63;;;;;;;4.16;100.00;96533.16;5073944;28;20076;-80
2021/11/27 11:23:16;;;;;;;6.05;2.10;;;;;;;4.11;100.00;96526.75;5073819;28;20476;-80
2021/11/27 11:26:06;;;;;;;5.22;1.75;;;;;;;4.15;100.00;96544.97;5059244;28;20052;-80
2021/11/27 11:28:35;;;;;;;;;;;;;;;4.21;100.00;96541.44;5077054;28;20399;-81
2021/11/27 11:31:07;;;;;;;5.53;2.17;;;;;;;4.24;100.00;96538.31;5090639;28;19929;-80
2021/11/27 11:33:37;;;;;;;3.25;1.73;;;;;;;4.32;100.00;96548.06;5064665;28;20045;-80
2021/11/27 11:36:07;;;;;;;2.88;1.85;;;;;;;4.20;100.00;96541.63;5066567;28;20480;-80
2021/11/27 11:38:39;;;;;;;4.15;1.50;;;;;;;4.10;100.00;96533.19;5073102;28;20088;-80
2021/11/27 11:41:22;;;;;;;2.10;1.10;;;;;;;4.09;100.00;96556.53;5063018;28;20044;-80
2021/11/27 11:43:50;;;;;;;1.50;1.35;;;;;;;4.07;100.00;96561.31;5072565;28;20048;-79
2021/11/27 11:46:20;;;;;;;2.22;1.23;;;;;;;3.86;100.00;96555.09;5073415;28;20047;-80
2021/11/27 11:48:54;;;;;;;1.70;0.80;;;;;;;3.80;100.00;96565.84;5072803;28;20131;-81
2021/11/27 11:51:36;;;;;;;2.08;0.55;;;;;;;3.38;100.00;96571.38;5073241;28;20080;-80
2021/11/27 11:54:07;;;;;;;1.05;0.60;;;;;;;3.07;100.00;96577.25;5076116;28;20453;-80
2021/11/27 11:56:40;;;;;;;1.23;1.00;;;;;;;2.99;100.00;96597.88;5093829;28;20056;-80
2021/11/27 11:59:22;;;;;;;1.25;0.80;;;;;;;2.96;100.00;96586.72;5083677;28;20041;-80
2021/11/27 12:02:12;;;;;;;1.08;0.80;;;;;;;2.87;100.00;96607.50;5067682;28;20657;-80
2021/11/27 12:04:39;;;;;;;2.58;1.10;;;;;;;2.77;100.00;96610.56;5058723;28;20070;-79
2021/11/27 12:07:10;;;;;;;0.82;0.80;;;;;;;2.74;100.00;96600.25;5077230;28;20036;-80
2021/11/27 12:10:12;;;;;;;2.03;0.82;;;;;;;2.56;100.00;96605.28;5073591;28;20051;-80
2021/11/27 12:12:40;;;;;;;3.28;1.30;;;;;;;2.51;100.00;96594.31;5053285;28;20643;-80
2021/11/27 12:15:08;;;;;;;1.48;0.82;;;;;;;2.56;100.00;96611.47;5061365;28;20503;-80
2021/11/27 12:18:06;;;;;;;2.88;0.98;;;;;;;2.60;100.00;96596.63;5074941;28;20542;-80
2021/11/27 12:20:47;;;;;;;2.10;1.90;;;;;;;2.69;100.00;96602.66;5083149;28;20052;-81
2021/11/27 12:23:39;;;;;;;0.75;0.50;;;;;;;2.70;100.00;96584.75;5072864;28;20052;-81
2021/11/27 12:26:25;;;;;;;1.02;0.80;;;;;;;2.94;100.00;96616.44;5070428;28;20056;-81
2021/11/27 12:29:17;;;;;;;1.42;0.90;;;;;;;2.83;100.00;96619.66;5076052;28;20061;-81
2021/11/27 12:31:54;;;;;;;0.82;0.70;;;;;;;2.87;100.00;96620.13;5080899;28;20480;-81
2021/11/27 12:34:45;;;;;;;4.07;1.23;;;;;;;2.86;100.00;96627.34;5073280;28;20049;-81
2021/11/27 12:37:26;;;;;;;1.63;1.05;;;;;;;2.78;100.00;96622.13;5072906;28;20040;-81
2021/11/27 12:39:54;;;;;;;3.45;1.60;;;;;;;2.72;100.00;96634.47;5072824;28;20063;-81
2021/11/27 12:42:31;;;;;;;2.67;1.75;;;;;;;2.71;100.00;96642.72;5087840;28;20048;-81
2021/11/27 12:45:00;;;;;;;1.67;1.20;;;;;;;2.64;100.00;96623.91;5092551;28;20135;-82
2021/11/27 12:47:36;;;;;;;3.60;1.67;;;;;;;2.71;100.00;96622.09;5079072;28;20105;-81
2021/11/27 12:50:12;;;;;;;3.08;1.63;;;;;;;2.93;100.00;96628.19;5073332;28;20044;-81
2021/11/27 12:52:43;;;;;;;6.13;1.20;;;;;;;3.13;100.00;96648.94;5095051;28;20044;-81
2021/11/27 12:55:33;;;;;;;2.20;1.48;;;;;;;3.17;100.00;96637.59;5085874;28;20162;-81
2021/11/27 12:58:00;;;;;;;;;;;;;;;3.26;100.00;96651.69;5097254;28;20066;-81
2021/11/27 13:00:30;;;;;;;1.65;1.20;;;;;;;3.13;100.00;96643.56;5087363;28;19927;-81
2021/11/27 13:03:02;;;;;;;6.95;3.95;;;;;;;3.09;100.00;96651.19;5090139;28;20124;-82
2021/11/27 13:05:31;;;;;;;43.42;6.35;;;;;;;3.05;100.00;96643.75;5077771;28;20123;-81
2021/11/27 13:08:03;;;;;;;2.20;1.70;;;;;;;2.96;100.00;96635.84;5076265;28;20055;-81
2021/11/27 13:10:37;;;;;;;1.20;1.10;;;;;;;3.15;100.00;96644.22;5076173;28;20060;-82
2021/11/27 13:13:11;;;;;;;3.13;1.20;;;;;;;3.15;100.00;96653.09;5076194;28;20403;-81
2021/11/27 13:15:40;;;;;;;1.17;0.95;;;;;;;2.92;100.00;96641.81;5076145;28;20056;-80
2021/11/27 13:18:12;;;;;;;1.30;0.82;;;;;;;2.77;100.00;96632.03;5076309;28;20051;-80
2021/11/27 13:20:57;;;;;;;2.80;0.90;;;;;;;2.92;100.00;96657.91;5076230;28;20442;-80
2021/11/27 13:23:26;;;;;;;1.08;0.98;;;;;;;2.74;100.00;96653.06;5075920;28;20071;-80
2021/11/27 13:25:55;;;;;;;0.95;0.80;;;;;;;2.65;100.00;96674.69;5075948;28;20064;-80
2021/11/27 13:28:25;;;;;;;1.02;0.85;;;;;;;2.40;100.00;96671.59;5075363;28;20086;-80
2021/11/27 13:30:54;;;;;;;2.05;1.17;;;;;;;2.34;100.00;96687.66;5055895;28;20075;-80
2021/11/27 13:33:23;;;;;;;2.47;1.60;;;;;;;2.26;100.00;96713.56;5056230;28;20056;-80
2021/11/27 13:35:53;;;;;;;1.35;1.25;;;;;;;2.12;100.00;96704.56;5061663;28;20047;-80
2021/11/27 13:38:40;;;;;;;2.08;1.73;;;;;;;1.86;100.00;96712.34;5079557;28;20045;-81
2021/11/27 13:41:16;;;;;;;3.47;1.85;;;;;;;1.73;100.00;96726.41;5089810;28;20058;-82
2021/11/27 13:43:47;;;;;;;6.80;1.90;;;;;;;1.71;100.00;96742.66;5095908;28;20051;-81
2021/11/27 13:46:15;;;;;;;2.85;1.67;;;;;;;1.68;100.00;96752.94;5096066;28;20040;-81
2021/11/27 13:48:42;;;;;;;3.95;2.42;;;;;;;1.51;100.00;96761.19;5077394;28;20048;-81
2021/11/27 13:51:10;;;;;;;7.80;3.33;;;;;;;1.23;100.00;96766.38;5075520;28;20065;-81
2021/11/27 13:53:37;;;;;;;4.55;2.17;;;;;;;1.30;100.00;96791.38;5067254;28;20048;-81
2021/11/27 13:56:04;;;;;;;3.17;2.30;;;;;;;0.99;100.00;96776.31;5079262;28;20042;-81
2021/11/27 13:58:42;;;;;;;3.35;2.70;;;;;;;1.03;100.00;96792.84;5067707;28;20059;-81
2021/11/27 14:01:15;;;;;;;2.65;1.92;;;;;;;0.99;100.00;96783.50;5078710;28;20072;-80
2021/11/27 14:03:49;;;;;;;3.75;2.50;;;;;;;0.88;100.00;96760.72;5088449;28;20501;-80
2021/11/27 14:06:16;;;;;;;4.43;3.10;;;;;;;0.85;100.00;96761.91;5083180;28;20049;-79
2021/11/27 14:08:53;;;;;;;4.80;3.03;;;;;;;0.72;100.00;96769.72;5085409;28;20055;-79
2021/11/27 14:11:20;;;;;;;4.65;2.45;;;;;;;0.80;100.00;96774.16;5077813;28;20060;-78
2021/11/27 14:14:00;;;;;;;4.60;3.20;;;;;;;0.80;100.00;96785.72;5074224;28;20040;-79
2021/11/27 14:16:28;;;;;;;;;;;;;;;0.85;100.00;96798.53;5075723;28;20060;-79
2021/11/27 14:19:08;;;;;;;3.53;2.60;;;;;;;0.78;100.00;96784.22;5074778;28;19926;-80
2021/11/27 14:21:36;;;;;;;3.35;2.30;;;;;;;0.82;100.00;96796.22;5054753;28;20053;-80
2021/11/27 14:24:08;;;;;;;3.03;2.70;;;;;;;0.78;100.00;96789.56;5068242;28;20044;-80
2021/11/27 14:26:44;;;;;;;5.20;3.25;;;;;;;0.98;100.00;96797.91;5087436;28;20049;-80
2021/11/27 14:29:18;;;;;;;3.75;2.63;;;;;;;0.97;100.00;96807.78;5066594;28;20052;-80
2021/11/27 14:31:47;;;;;;;4.70;3.05;;;;;;;1.10;100.00;96817.00;5078361;28;20047;-82
2021/11/27 14:34:20;;;;;;;4.90;3.20;;;;;;;1.06;100.00;96798.66;5095219;28;20059;-80
2021/11/27 14:36:53;;;;;;;4.93;3.42;;;;;;;1.44;100.00;96800.41;5052428;28;20076;-79
2021/11/27 14:39:24;;;;;;;4.65;3.13;;;;;;;1.45;100.00;96787.88;5067947;28;20053;-80
2021/11/27 14:41:52;;;;;;;5.80;3.60;;;;;;;1.68;100.00;96783.22;5077993;28;20057;-79
2021/11/27 14:44:27;;;;;;;5.07;3.47;;;;;;;1.77;100.00;96800.84;5072548;28;20041;-80
2021/11/27 14:47:06;;;;;;;4.70;3.55;;;;;;;1.82;100.00;96813.69;5073582;28;20080;-80
2021/11/27 14:49:35;;;;;;;4.80;3.27;;;;;;;1.74;100.00;96811.94;5073722;28;20147;-80
2021/11/27 14:52:10;;;;;;;4.18;3.33;;;;;;;1.73;100.00;96817.47;5073629;28;20049;-80
2021/11/27 14:54:41;;;;;;;3.72;2.83;;;;;;;1.58;100.00;96809.47;5074561;28;20105;-80
2021/11/27 14:57:10;;;;;;;4.78;2.90;;;;;;;1.46;100.00;96814.47;5073502;28;20053;-79
2021/11/27 14:59:49;;;;;;;2.70;2.30;;;;;;;1.43;100.00;96830.91;5073464;28;20041;-80
2021/11/27 15:02:21;;;;;;;4.45;3.17;;;;;;;1.28;100.00;96827.38;5073811;28;20495;-80
2021/11/27 15:04:48;;;;;;;3.20;2.45;;;;;;;1.17;100.00;96824.13;5073466;28;20071;-80
2021/11/27 15:07:19;;;;;;;6.00;2.95;;;;;;;1.34;100.00;96811.44;5057396;28;20496;-80
2021/11/27 15:09:46;;;;;;;3.85;2.90;;;;;;;1.10;100.00;96790.25;5053069;28;20059;-80
2021/11/27 15:12:14;;;;;;;6.18;3.03;;;;;;;0.92;100.00;96796.81;5071031;28;20488;-80
2021/11/27 15:14:42;;;;;;;3.10;2.70;;;;;;;0.90;100.00;96774.72;5073197;28;20060;-79
2021/11/27 15:17:10;;;;;;;3.72;2.95;;;;;;;0.77;100.00;96783.41;5083084;28;20044;-79
2021/11/27 15:19:39;;;;;;;4.72;2.92;;;;;;;0.77;100.00;96804.78;5093406;28;20452;-79
2021/11/27 15:22:09;;;;;;;4.05;2.95;;;;;;;0.66;100.00;96797.19;5088142;28;20055;-79
2021/11/27 15:24:36;;;;;;;4.53;3.03;;;;;;;0.64;100.00;96805.41;5095128;28;20139;-80
2021/11/27 15:27:06;;;;;;;6.85;3.00;;;;;;;0.60;100.00;96812.09;5081455;28;20045;-79
2021/11/27 15:29:36;;;;;;;3.63;2.40;;;;;;;0.51;100.00;96814.03;5064786;28;20052;-79
2021/11/27 15:32:06;;;;;;;2.67;2.13;;;;;;;0.48;100.00;96816.22;5074636;28;20393;-80
2021/11/27 15:34:34;;;;;;;3.63;2.10;;;;;;;0.51;100.00;96831.91;5076805;28;20075;-80
2021/11/27 15:37:08;;;;;;;5.80;2.95;;;;;;;0.43;100.00;96834.66;5089641;28;20063;-79
2021/11/27 15:39:36;;;;;;;3.65;2.65;;;;;;;0.32;100.00;96842.06;5066075;28;20055;-81
2021/11/27 15:42:04;;;;;;;3.42;2.67;;;;;;;0.35;100.00;96840.88;5075069;28;20048;-81
2021/11/27 15:44:32;;;;;;;5.10;2.80;;;;;;;0.28;100.00;96831.91;5081405;28;20105;-80
2021/11/27 15:47:00;;;;;;;4.07;2.63;;;;;;;0.30;100.00;96843.22;5084187;28;20436;-80
2021/11/27 15:49:27;;;;;;;4.05;2.88;;;;;;;0.25;100.00;96845.63;5072839;28;20054;-80
2021/11/27 15:51:54;;;;;;;6.30;3.83;;;;;;;0.22;100.00;96862.81;5072738;28;20407;-80
2021/11/27 15:54:22;;;;;;;4.05;3.00;;;;;;;-0.10;100.00;96850.50;5073026;28;20059;-79
2021/11/27 15:56:50;;;;;;;7.82;4.53;;;;;;;0.06;100.00;96877.13;5071259;28;20056;-80
2021/11/27 15:59:17;;;;;;;8.35;4.50;;;;;;;0.05;100.00;96882.66;5072587;28;20628;-80
2021/11/27 16:01:46;;;;;;;7.40;4.65;;;;;;;-0.02;100.00;96874.47;5059040;28;20052;-80
2021/11/27 16:04:13;;;;;;;10.52;5.35;;;;;;;-0.04;100.00;96892.53;5072480;28;20468;-80
2021/11/27 16:06:43;;;;;;;10.00;5.45;;;;;;;-0.06;100.00;96899.88;5072762;28;20128;-80
2021/11/27 16:09:11;;;;;;;9.68;5.63;;;;;;;-0.06;100.00;96911.41;5073658;28;20087;-80
2021/11/27 16:11:44;;;;;;;9.85;6.22;;;;;;;-0.04;100.00;96909.38;5074315;28;20483;-79
2021/11/27 16:14:11;;;;;;;12.00;7.32;;;;;;;-0.15;100.00;96898.25;5058002;28;20057;-79
2021/11/27 16:16:38;;;;;;;11.15;7.35;;;;;;;-0.08;100.00;96902.72;5052644;28;20053;-79
2021/11/27 16:19:05;;;;;;;10.95;6.80;;;;;;;-0.01;100.00;96906.38;5068751;28;20044;-79
2021/11/27 16:21:32;;;;;;;8.95;5.57;;;;;;;-0.01;100.00;96894.84;5092144;28;20052;-79
2021/11/27 16:23:59;;;;;;;17.58;7.88;;;;;;;0.02;100.00;96915.06;5091843;28;20036;-79
2021/11/27 16:26:26;;;;;;;18.95;7.03;;;;;;;0.03;100.00;96911.34;5077139;28;20090;-79
2021/11/27 16:28:54;;;;;;;10.40;5.25;;;;;;;-0.19;100.00;96887.91;5076109;28;20048;-79
2021/11/27 16:31:22;;;;;;;8.93;5.32;;;;;;;-0.24;100.00;96900.94;5077618;28;20056;-79
2021/11/27 16:33:49;;;;;;;7.90;4.75;;;;;;;-0.24;100.00;96908.09;5085672;28;20768;-79
2021/11/27 16:36:16;;;;;;;8.50;5.23;;;;;;;-0.22;100.00;96914.94;5075564;28;20378;-80
2021/11/27 16:38:43;;;;;;;7.38;4.55;;;;;;;-0.26;100.00;96915.47;5074787;28;20381;-80
2021/11/27 16:41:11;;;;;;;9.02;5.13;;;;;;;-0.27;100.00;96922.66;5076569;28;20044;-80
2021/11/27 16:43:39;;;;;;;6.53;4.30;;;;;;;-0.40;100.00;96904.50;5076051;28;20048;-80
2021/11/27 16:46:09;;;;;;;7.85;4.60;;;;;;;-0.40;100.00;96898.34;5076501;28;20500;-80
2021/11/27 16:48:37;;;;;;;9.23;4.53;;;;;;;-0.42;100.00;96925.19;5075423;28;20056;-80
2021/11/27 16:51:04;;;;;;;5.60;4.15;;;;;;;-0.57;100.00;96906.38;5076157;28;20055;-81
2021/11/27 16:53:31;;;;;;;9.80;4.78;;;;;;;-0.44;100.00;96921.03;5093850;28;20048;-81
2021/11/27 16:55:58;;;;;;;9.18;4.65;;;;;;;-0.56;100.00;96909.88;5096673;28;20044;-81
2021/11/27 16:58:24;;;;;;;5.95;4.07;;;;;;;-0.56;100.00;96920.53;5076301;28;20060;-81
2021/11/27 17:00:51;;;;;;;5.65;3.97;;;;;;;-0.64;100.00;96917.91;5075292;28;20568;-81
2021/11/27 17:03:19;;;;;;;6.63;4.03;;;;;;;-0.62;100.00;96918.56;5087171;28;20097;-81
2021/11/27 17:05:52;;;;;;;6.32;4.63;;;;;;;-0.56;100.00;96913.38;5096743;28;20407;-81
2021/11/27 17:08:20;;;;;;;5.82;4.45;;;;;;;-0.32;100.00;96935.66;5080953;28;20051;-81
2021/11/27 17:10:47;;;;;;;8.52;4.35;;;;;;;-0.43;100.00;96914.69;5075676;28;20519;-81
2021/11/27 17:13:13;;;;;;;6.60;4.30;;;;;;;-0.63;100.00;96920.41;5075714;28;20040;-81
2021/11/27 17:15:40;;;;;;;8.10;4.10;;;;;;;-0.35;100.00;96933.34;5057862;28;20052;-81
2021/11/27 17:18:07;;;;;;;7.60;4.22;;;;;;;-0.41;100.00;96939.38;5054663;28;20562;-80
2021/11/27 17:20:36;;;;;;;7.20;4.50;;;;;;;-0.55;100.00;96927.56;5064424;28;20044;-82
2021/11/27 17:23:26;;;;;;;11.90;4.73;;;;;;;-0.27;100.00;96951.19;5095688;28;20055;-81
2021/11/27 17:25:53;;;;;;;11.97;5.43;;;;;;;-0.30;100.00;96947.03;5074104;28;20072;-81
2021/11/27 17:28:20;;;;;;;8.63;5.33;;;;;;;-0.31;100.00;96948.03;5075058;28;20470;-81
2021/11/27 17:30:47;;;;;;;10.20;5.57;;;;;;;-0.30;100.00;96954.19;5074656;28;20049;-81
2021/11/27 17:33:14;;;;;;;5.47;4.03;;;;;;;-0.23;100.00;96958.69;5062941;28;20071;-81
2021/11/27 17:35:43;;;;;;;10.13;4.63;;;;;;;-0.12;100.00;96960.16;5075158;28;20069;-81
2021/11/27 17:38:11;;;;;;;6.47;3.90;;;;;;;-0.17;100.00;96957.16;5075056;28;20064;-81
2021/11/27 17:40:38;;;;;;;10.40;5.77;;;;;;;-0.26;100.00;96945.66;5074570;28;20082;-81
2021/11/27 17:43:05;;;;;;;7.60;5.23;;;;;;;-0.06;100.00;96974.66;5075756;28;20052;-81
2021/11/27 17:45:31;;;;;;;11.37;5.17;;;;;;;-0.17;100.00;96961.69;5075317;28;20102;-81
2021/11/27 17:47:58;;;;;;;9.37;4.73;;;;;;;-0.23;100.00;96957.84;5094659;28;20105;-81
2021/11/27 17:50:25;;;;;;;9.90;5.57;;;;;;;-0.37;100.00;96965.56;5095734;28;20113;-81
2021/11/27 17:52:54;;;;;;;12.50;5.77;;;;;;;-0.44;100.00;96963.72;5084710;28;20048;-81
2021/11/27 17:55:20;;;;;;;10.70;5.53;;;;;;;-0.38;100.00;96971.06;5089530;28;20043;-81
2021/11/27 17:57:47;;;;;;;10.00;5.57;;;;;;;-0.51;100.00;96971.59;5083399;28;20048;-81
2021/11/27 18:00:15;;;;;;;9.25;5.35;;;;;;;-0.52;100.00;96971.78;5074846;28;20075;-80
2021/11/27 18:02:42;;;;;;;7.93;4.70;;;;;;;-0.67;100.00;96958.28;5075407;28;20420;-81
2021/11/27 18:05:10;;;;;;;6.95;4.55;;;;;;;-0.54;100.00;96986.09;5075025;28;20439;-81
2021/11/27 18:07:38;;;;;;;9.57;5.38;;;;;;;-0.58;100.00;96981.28;5079584;28;20070;-80
2021/11/27 18:10:13;;;;;;;10.00;6.55;;;;;;;-0.51;100.00;96992.97;5095153;28;20136;-81
2021/11/27 18:12:43;;;;;;;7.80;5.03;;;;;;;-0.36;100.00;96990.44;5091716;28;20055;-80
2021/11/27 18:15:13;;;;;;;8.13;5.07;;;;;;;-0.24;100.00;96977.53;5063464;28;20052;-81
2021/11/27 18:17:40;;;;;;;11.00;6.15;;;;;;;-0.37;100.00;96981.56;5075676;28;20044;-81
2021/11/27 18:20:25;;;;;;;8.23;5.30;;;;;;;-0.23;100.00;96989.91;5094939;28;20048;-81
2021/11/27 18:22:52;;;;;;;9.60;6.40;;;;;;;-0.49;100.00;96980.25;5074774;28;20052;-81
2021/11/27 18:25:23;;;;;;;12.03;7.33;;;;;;;-0.40;100.00;96987.25;5094644;28;20406;-81
2021/11/27 18:27:51;;;;;;;12.80;8.20;;;;;;;-0.27;100.00;97009.91;5094452;28;20048;-81
2021/11/27 18:30:24;;;;;;;14.67;8.33;;;;;;;-0.31;100.00;97004.09;5085911;28;20048;-82
2021/11/27 18:32:51;;;;;;;15.03;8.73;;;;;;;-0.34;100.00;96999.09;5074328;28;20404;-81
2021/11/27 18:35:18;;;;;;;17.67;7.53;;;;;;;-0.45;100.00;96994.94;5074470;28;20049;-81
2021/11/27 18:37:44;;;;;;;11.90;7.13;;;;;;;-0.49;100.00;96988.28;5074186;28;20048;-81
2021/11/27 18:40:12;;;;;;;21.27;8.63;;;;;;;-0.44;100.00;96985.09;5073960;28;20056;-81
2021/11/27 18:42:40;;;;;;;11.32;7.57;;;;;;;-0.41;100.00;96996.25;5074456;28;20056;-81
2021/11/27 18:45:09;;;;;;;11.47;6.50;;;;;;;-0.22;100.00;97003.09;5072966;28;20550;-81
2021/11/27 18:47:36;;;;;;;11.23;7.20;;;;;;;-0.25;100.00;97002.59;5068140;28;20036;-81
2021/11/27 18:50:04;;;;;;;9.63;6.67;;;;;;;-0.52;100.00;96995.78;5074174;28;20052;-81
2021/11/27 18:52:31;;;;;;;12.38;6.35;;;;;;;-0.51;100.00;97006.31;5078461;28;20060;-81
2021/11/27 18:54:57;;;;;;;11.40;7.77;;;;;;;-0.62;100.00;96993.28;5088588;28;20535;-81
2021/11/27 18:57:24;;;;;;;9.57;7.00;;;;;;;-0.63;100.00;97005.81;5093974;28;20051;-81
2021/11/27 18:59:53;;;;;;;9.93;6.70;;;;;;;-0.61;100.00;97013.63;5085378;28;20101;-81
2021/11/27 19:02:20;;;;;;;8.93;5.07;;;;;;;-0.54;100.00;97011.97;5093971;28;20059;-81
2021/11/27 19:04:49;;;;;;;14.35;6.63;;;;;;;-0.61;100.00;97006.47;5089933;28;20044;-81
2021/11/27 19:07:17;;;;;;;8.80;5.47;;;;;;;-0.68;100.00;96997.44;5082100;28;20516;-81
2021/11/27 19:09:46;;;;;;;7.38;5.55;;;;;;;-0.61;100.00;97005.63;5073751;28;20290;-81
2021/11/27 19:12:13;;;;;;;10.77;5.87;;;;;;;-0.59;100.00;97008.97;5079908;28;20073;-81
2021/11/27 19:14:44;;;;;;;11.07;6.00;;;;;;;-0.65;100.00;97006.97;5089708;28;20564;-81
2021/11/27 19:17:12;;;;;;;9.03;6.03;;;;;;;-0.54;100.00;97006.63;5093501;28;20598;-81
2021/11/27 19:19:39;;;;;;;10.17;7.07;;;;;;;-0.47;100.00;97026.28;5093543;28;20055;-82
2021/11/27 19:22:10;;;;;;;13.20;7.07;;;;;;;-0.52;100.00;97015.31;5078218;28;20048;-81
2021/11/27 19:24:37;;;;;;;10.00;5.70;;;;;;;-0.55;100.00;97029.81;5072766;28;20045;-81
2021/11/27 19:27:05;;;;;;;14.37;6.90;;;;;;;-0.76;100.00;97008.13;5074241;28;20083;-81
2021/11/27 19:29:33;;;;;;;11.23;5.50;;;;;;;-0.88;100.00;97014.81;5073210;28;20049;-82
2021/11/27 19:32:02;;;;;;;13.30;6.40;;;;;;;-0.94;100.00;97019.78;5093252;28;20105;-81
2021/11/27 19:34:30;;;;;;;17.30;5.93;;;;;;;-0.85;100.00;97017.13;5093640;28;20054;-81
2021/11/27 19:36:57;;;;;;;9.03;5.97;;;;;;;-0.86;100.00;97026.94;5077986;28;20044;-81
2021/11/27 19:39:24;;;;;;;17.15;9.63;;;;;;;-1.03;100.00;97003.94;5069887;28;20063;-85
2021/11/27 19:41:52;;;;;;;13.80;6.50;;;;;;;-0.88;100.00;97004.94;5073191;28;20477;-82
2021/11/27 19:44:19;;;;;;;11.83;7.73;;;;;;;-0.75;100.00;97023.16;5053924;28;20049;-81
2021/11/27 19:46:53;;;;;;;12.40;8.10;;;;;;;-0.73;100.00;97031.81;5064587;28;20056;-82
2021/11/27 19:49:20;;;;;;;10.80;6.50;;;;;;;-0.83;100.00;97002.59;5093600;28;20381;-82
2021/11/27 19:51:49;;;;;;;9.90;6.57;;;;;;;-0.83;100.00;97015.94;5092770;28;20079;-82
2021/11/27 19:54:22;;;;;;;11.80;7.83;;;;;;;-1.19;100.00;97013.59;5087153;28;20067;-82